sensor_id;sensor_type;location;lat;lon;timestamp;P1;P2;P0
36519;PMS5003;40269;46.742;9.778;2023-02-28T00:01:45;23;18;
36519;PMS5003;40269;46.742;9.778;2023-02-28T00:04:12;21;16;
36519;PMS5003;40269;46.742;9.778;2023-02-28T00:06:38;18;15;
36519;PMS5003;40269;46.742;9.778;2023-02-28T00:09:05;16;15;
36519;PMS5003;40269;46.742;9.778;2023-02-28T00:11:32;24;20;
36519;PMS5003;40269;46.742;9.778;2023-02-28T00:13:59;28;27;
36519;PMS5003;40269;46.742;9.778;2023-02-28T00:16:26;15;12;
36519;PMS5003;40269;46.742;9.778;2023-02-28T00:18:53;12;12;
36519;PMS5003;40269;46.742;9.778;2023-02-28T00:21:20;15;12;
36519;PMS5003;40269;46.742;9.778;2023-02-28T00:23:48;13;10;
36519;PMS5003;40269;46.742;9.778;2023-02-28T00:26:15;10;10;
36519;PMS5003;40269;46.742;9.778;2023-02-28T00:28:43;16;11;
36519;PMS5003;40269;46.742;9.778;2023-02-28T00:31:09;10;10;
36519;PMS5003;40269;46.742;9.778;2023-02-28T00:33:36;14;13;
36519;PMS5003;40269;46.742;9.778;2023-02-28T00:36:04;12;11;
36519;PMS5003;40269;46.742;9.778;2023-02-28T00:38:33;13;11;
36519;PMS5003;40269;46.742;9.778;2023-02-28T00:41:00;14;9;
36519;PMS5003;40269;46.742;9.778;2023-02-28T00:43:27;13;11;
36519;PMS5003;40269;46.742;9.778;2023-02-28T00:45:53;11;9;
36519;PMS5003;40269;46.742;9.778;2023-02-28T00:48:21;11;9;
36519;PMS5003;40269;46.742;9.778;2023-02-28T00:50:48;13;11;
36519;PMS5003;40269;46.742;9.778;2023-02-28T00:53:15;10;10;
36519;PMS5003;40269;46.742;9.778;2023-02-28T00:55:42;13;11;
36519;PMS5003;40269;46.742;9.778;2023-02-28T00:58:09;10;9;
36519;PMS5003;40269;46.742;9.778;2023-02-28T01:00:36;9;7;
36519;PMS5003;40269;46.742;9.778;2023-02-28T01:03:03;7;7;
36519;PMS5003;40269;46.742;9.778;2023-02-28T01:05:30;17;11;
36519;PMS5003;40269;46.742;9.778;2023-02-28T01:07:57;10;6;
36519;PMS5003;40269;46.742;9.778;2023-02-28T01:10:24;12;12;
36519;PMS5003;40269;46.742;9.778;2023-02-28T01:12:51;15;10;
36519;PMS5003;40269;46.742;9.778;2023-02-28T01:15:18;10;9;
36519;PMS5003;40269;46.742;9.778;2023-02-28T01:17:45;10;7;
36519;PMS5003;40269;46.742;9.778;2023-02-28T01:20:12;9;7;
36519;PMS5003;40269;46.742;9.778;2023-02-28T01:22:39;13;9;
36519;PMS5003;40269;46.742;9.778;2023-02-28T01:25:06;9;9;
36519;PMS5003;40269;46.742;9.778;2023-02-28T01:27:34;9;9;
36519;PMS5003;40269;46.742;9.778;2023-02-28T01:30:01;13;9;
36519;PMS5003;40269;46.742;9.778;2023-02-28T01:32:28;11;10;
36519;PMS5003;40269;46.742;9.778;2023-02-28T01:34:55;11;10;
36519;PMS5003;40269;46.742;9.778;2023-02-28T01:37:22;9;9;
36519;PMS5003;40269;46.742;9.778;2023-02-28T01:39:49;13;9;
36519;PMS5003;40269;46.742;9.778;2023-02-28T01:42:16;10;9;
36519;PMS5003;40269;46.742;9.778;2023-02-28T01:45:00;19;11;
36519;PMS5003;40269;46.742;9.778;2023-02-28T01:47:31;11;11;
36519;PMS5003;40269;46.742;9.778;2023-02-28T01:50:03;19;13;
36519;PMS5003;40269;46.742;9.778;2023-02-28T01:52:34;13;11;
36519;PMS5003;40269;46.742;9.778;2023-02-28T01:55:01;13;10;
36519;PMS5003;40269;46.742;9.778;2023-02-28T01:57:32;13;10;
36519;PMS5003;40269;46.742;9.778;2023-02-28T02:00:02;7;7;
36519;PMS5003;40269;46.742;9.778;2023-02-28T02:02:34;10;9;
36519;PMS5003;40269;46.742;9.778;2023-02-28T02:05:04;10;10;
36519;PMS5003;40269;46.742;9.778;2023-02-28T02:07:34;6;6;
36519;PMS5003;40269;46.742;9.778;2023-02-28T02:10:09;11;9;
36519;PMS5003;40269;46.742;9.778;2023-02-28T02:12:44;11;11;
36519;PMS5003;40269;46.742;9.778;2023-02-28T02:15:23;11;10;
36519;PMS5003;40269;46.742;9.778;2023-02-28T02:17:56;13;11;
36519;PMS5003;40269;46.742;9.778;2023-02-28T02:20:32;7;6;
36519;PMS5003;40269;46.742;9.778;2023-02-28T02:23:31;11;7;
36519;PMS5003;40269;46.742;9.778;2023-02-28T02:26:18;9;9;
36519;PMS5003;40269;46.742;9.778;2023-02-28T02:29:16;7;7;
36519;PMS5003;40269;46.742;9.778;2023-02-28T02:32:39;9;8;
36519;PMS5003;40269;46.742;9.778;2023-02-28T02:35:21;8;6;
36519;PMS5003;40269;46.742;9.778;2023-02-28T02:37:55;12;8;
36519;PMS5003;40269;46.742;9.778;2023-02-28T02:40:30;6;6;
36519;PMS5003;40269;46.742;9.778;2023-02-28T02:43:06;6;6;
36519;PMS5003;40269;46.742;9.778;2023-02-28T02:45:39;12;8;
36519;PMS5003;40269;46.742;9.778;2023-02-28T02:48:13;6;5;
36519;PMS5003;40269;46.742;9.778;2023-02-28T02:50:43;5;5;
36519;PMS5003;40269;46.742;9.778;2023-02-28T02:53:13;5;5;
36519;PMS5003;40269;46.742;9.778;2023-02-28T02:55:44;29;26;
36519;PMS5003;40269;46.742;9.778;2023-02-28T02:58:15;17;17;
36519;PMS5003;40269;46.742;9.778;2023-02-28T03:00:47;10;9;
36519;PMS5003;40269;46.742;9.778;2023-02-28T03:03:19;10;10;
36519;PMS5003;40269;46.742;9.778;2023-02-28T03:05:48;10;10;
36519;PMS5003;40269;46.742;9.778;2023-02-28T03:08:16;6;6;
36519;PMS5003;40269;46.742;9.778;2023-02-28T03:10:44;6;6;
36519;PMS5003;40269;46.742;9.778;2023-02-28T03:13:20;10;9;
36519;PMS5003;40269;46.742;9.778;2023-02-28T03:17:08;9;6;
36519;PMS5003;40269;46.742;9.778;2023-02-28T03:19:52;9;8;
36519;PMS5003;40269;46.742;9.778;2023-02-28T03:22:31;9;9;
36519;PMS5003;40269;46.742;9.778;2023-02-28T03:25:12;8;8;
36519;PMS5003;40269;46.742;9.778;2023-02-28T03:27:48;9;9;
36519;PMS5003;40269;46.742;9.778;2023-02-28T03:30:27;8;8;
36519;PMS5003;40269;46.742;9.778;2023-02-28T03:33:02;8;5;
36519;PMS5003;40269;46.742;9.778;2023-02-28T03:35:34;10;8;
36519;PMS5003;40269;46.742;9.778;2023-02-28T03:38:05;9;9;
36519;PMS5003;40269;46.742;9.778;2023-02-28T03:40:37;8;8;
36519;PMS5003;40269;46.742;9.778;2023-02-28T03:43:10;10;9;
36519;PMS5003;40269;46.742;9.778;2023-02-28T03:45:40;10;10;
36519;PMS5003;40269;46.742;9.778;2023-02-28T03:48:11;8;8;
36519;PMS5003;40269;46.742;9.778;2023-02-28T03:50:42;9;5;
36519;PMS5003;40269;46.742;9.778;2023-02-28T03:53:13;9;9;
36519;PMS5003;40269;46.742;9.778;2023-02-28T03:55:44;5;5;
36519;PMS5003;40269;46.742;9.778;2023-02-28T03:58:15;8;8;
36519;PMS5003;40269;46.742;9.778;2023-02-28T04:00:52;12;12;
36519;PMS5003;40269;46.742;9.778;2023-02-28T04:03:22;5;5;
36519;PMS5003;40269;46.742;9.778;2023-02-28T04:05:50;9;6;
36519;PMS5003;40269;46.742;9.778;2023-02-28T04:08:19;8;6;
36519;PMS5003;40269;46.742;9.778;2023-02-28T04:10:48;5;5;
36519;PMS5003;40269;46.742;9.778;2023-02-28T04:13:21;9;9;
36519;PMS5003;40269;46.742;9.778;2023-02-28T04:15:48;9;8;
36519;PMS5003;40269;46.742;9.778;2023-02-28T04:18:15;9;8;
36519;PMS5003;40269;46.742;9.778;2023-02-28T04:20:42;6;6;
36519;PMS5003;40269;46.742;9.778;2023-02-28T04:23:09;8;8;
36519;PMS5003;40269;46.742;9.778;2023-02-28T04:25:36;11;8;
36519;PMS5003;40269;46.742;9.778;2023-02-28T04:28:03;8;8;
36519;PMS5003;40269;46.742;9.778;2023-02-28T04:30:30;9;8;
36519;PMS5003;40269;46.742;9.778;2023-02-28T04:32:57;11;9;
36519;PMS5003;40269;46.742;9.778;2023-02-28T04:35:24;9;6;
36519;PMS5003;40269;46.742;9.778;2023-02-28T04:37:51;8;8;
36519;PMS5003;40269;46.742;9.778;2023-02-28T04:40:18;15;12;
36519;PMS5003;40269;46.742;9.778;2023-02-28T04:42:45;15;9;
36519;PMS5003;40269;46.742;9.778;2023-02-28T04:45:12;8;8;
36519;PMS5003;40269;46.742;9.778;2023-02-28T04:47:39;6;6;
36519;PMS5003;40269;46.742;9.778;2023-02-28T04:50:07;9;8;
36519;PMS5003;40269;46.742;9.778;2023-02-28T04:52:34;6;6;
36519;PMS5003;40269;46.742;9.778;2023-02-28T04:55:01;9;8;
36519;PMS5003;40269;46.742;9.778;2023-02-28T04:57:28;11;9;
36519;PMS5003;40269;46.742;9.778;2023-02-28T04:59:55;6;6;
36519;PMS5003;40269;46.742;9.778;2023-02-28T05:02:22;9;6;
36519;PMS5003;40269;46.742;9.778;2023-02-28T05:04:49;12;8;
36519;PMS5003;40269;46.742;9.778;2023-02-28T05:07:16;5;5;
36519;PMS5003;40269;46.742;9.778;2023-02-28T05:09:43;8;6;
36519;PMS5003;40269;46.742;9.778;2023-02-28T05:12:11;5;5;
36519;PMS5003;40269;46.742;9.778;2023-02-28T05:14:38;8;8;
36519;PMS5003;40269;46.742;9.778;2023-02-28T05:17:05;9;8;
36519;PMS5003;40269;46.742;9.778;2023-02-28T05:19:32;9;8;
36519;PMS5003;40269;46.742;9.778;2023-02-28T05:21:59;5;5;
36519;PMS5003;40269;46.742;9.778;2023-02-28T05:24:26;5;5;
36519;PMS5003;40269;46.742;9.778;2023-02-28T05:26:53;11;9;
36519;PMS5003;40269;46.742;9.778;2023-02-28T05:29:21;10;10;
36519;PMS5003;40269;46.742;9.778;2023-02-28T05:31:49;11;9;
36519;PMS5003;40269;46.742;9.778;2023-02-28T05:34:16;9;9;
36519;PMS5003;40269;46.742;9.778;2023-02-28T05:36:43;12;10;
36519;PMS5003;40269;46.742;9.778;2023-02-28T05:39:10;15;13;
36519;PMS5003;40269;46.742;9.778;2023-02-28T05:41:38;13;10;
36519;PMS5003;40269;46.742;9.778;2023-02-28T05:44:06;12;11;
36519;PMS5003;40269;46.742;9.778;2023-02-28T05:46:33;15;9;
36519;PMS5003;40269;46.742;9.778;2023-02-28T05:49:00;9;6;
36519;PMS5003;40269;46.742;9.778;2023-02-28T05:51:28;8;6;
36519;PMS5003;40269;46.742;9.778;2023-02-28T05:53:58;14;8;
36519;PMS5003;40269;46.742;9.778;2023-02-28T05:56:26;9;8;
36519;PMS5003;40269;46.742;9.778;2023-02-28T05:58:53;12;12;
36519;PMS5003;40269;46.742;9.778;2023-02-28T06:01:22;12;9;
36519;PMS5003;40269;46.742;9.778;2023-02-28T06:03:51;12;11;
36519;PMS5003;40269;46.742;9.778;2023-02-28T06:06:18;11;9;
36519;PMS5003;40269;46.742;9.778;2023-02-28T06:08:45;15;9;
36519;PMS5003;40269;46.742;9.778;2023-02-28T06:11:13;8;8;
36519;PMS5003;40269;46.742;9.778;2023-02-28T06:13:40;9;9;
36519;PMS5003;40269;46.742;9.778;2023-02-28T06:16:08;9;9;
36519;PMS5003;40269;46.742;9.778;2023-02-28T06:18:37;11;8;
36519;PMS5003;40269;46.742;9.778;2023-02-28T06:21:04;11;11;
36519;PMS5003;40269;46.742;9.778;2023-02-28T06:23:31;12;9;
36519;PMS5003;40269;46.742;9.778;2023-02-28T06:25:58;17;13;
36519;PMS5003;40269;46.742;9.778;2023-02-28T06:28:25;41;41;
36519;PMS5003;40269;46.742;9.778;2023-02-28T06:30:52;49;46;
36519;PMS5003;40269;46.742;9.778;2023-02-28T06:33:19;28;27;
36519;PMS5003;40269;46.742;9.778;2023-02-28T06:35:47;35;31;
36519;PMS5003;40269;46.742;9.778;2023-02-28T06:38:17;49;46;
36519;PMS5003;40269;46.742;9.778;2023-02-28T06:40:44;49;45;
36519;PMS5003;40269;46.742;9.778;2023-02-28T06:43:11;24;24;
36519;PMS5003;40269;46.742;9.778;2023-02-28T06:45:41;15;12;
36519;PMS5003;40269;46.742;9.778;2023-02-28T06:48:09;22;20;
36519;PMS5003;40269;46.742;9.778;2023-02-28T06:50:36;17;16;
36519;PMS5003;40269;46.742;9.778;2023-02-28T06:53:03;12;12;
36519;PMS5003;40269;46.742;9.778;2023-02-28T06:55:30;13;10;
36519;PMS5003;40269;46.742;9.778;2023-02-28T06:57:57;12;10;
36519;PMS5003;40269;46.742;9.778;2023-02-28T07:00:24;12;12;
36519;PMS5003;40269;46.742;9.778;2023-02-28T07:02:51;16;10;
36519;PMS5003;40269;46.742;9.778;2023-02-28T07:05:18;14;10;
36519;PMS5003;40269;46.742;9.778;2023-02-28T07:07:45;25;21;
36519;PMS5003;40269;46.742;9.778;2023-02-28T07:10:12;20;17;
36519;PMS5003;40269;46.742;9.778;2023-02-28T07:12:39;13;10;
36519;PMS5003;40269;46.742;9.778;2023-02-28T07:15:06;17;13;
36519;PMS5003;40269;46.742;9.778;2023-02-28T07:17:35;13;12;
36519;PMS5003;40269;46.742;9.778;2023-02-28T07:20:02;12;12;
36519;PMS5003;40269;46.742;9.778;2023-02-28T07:22:30;13;12;
36519;PMS5003;40269;46.742;9.778;2023-02-28T07:24:57;12;8;
36519;PMS5003;40269;46.742;9.778;2023-02-28T07:27:24;12;12;
36519;PMS5003;40269;46.742;9.778;2023-02-28T07:29:51;17;10;
36519;PMS5003;40269;46.742;9.778;2023-02-28T07:32:19;15;15;
36519;PMS5003;40269;46.742;9.778;2023-02-28T07:34:46;19;16;
36519;PMS5003;40269;46.742;9.778;2023-02-28T07:37:13;17;16;
36519;PMS5003;40269;46.742;9.778;2023-02-28T07:39:40;20;17;
36519;PMS5003;40269;46.742;9.778;2023-02-28T07:42:07;16;12;
36519;PMS5003;40269;46.742;9.778;2023-02-28T07:44:34;20;20;
36519;PMS5003;40269;46.742;9.778;2023-02-28T07:47:01;17;14;
36519;PMS5003;40269;46.742;9.778;2023-02-28T07:49:28;16;14;
36519;PMS5003;40269;46.742;9.778;2023-02-28T07:51:55;10;10;
36519;PMS5003;40269;46.742;9.778;2023-02-28T07:54:22;8;8;
36519;PMS5003;40269;46.742;9.778;2023-02-28T07:56:49;9;6;
36519;PMS5003;40269;46.742;9.778;2023-02-28T07:59:16;18;16;
36519;PMS5003;40269;46.742;9.778;2023-02-28T08:01:43;37;31;
36519;PMS5003;40269;46.742;9.778;2023-02-28T08:04:10;33;29;
36519;PMS5003;40269;46.742;9.778;2023-02-28T08:06:37;29;21;
36519;PMS5003;40269;46.742;9.778;2023-02-28T08:09:04;18;17;
36519;PMS5003;40269;46.742;9.778;2023-02-28T08:11:31;11;9;
36519;PMS5003;40269;46.742;9.778;2023-02-28T08:13:58;9;9;
36519;PMS5003;40269;46.742;9.778;2023-02-28T08:16:25;11;7;
36519;PMS5003;40269;46.742;9.778;2023-02-28T08:18:52;9;9;
36519;PMS5003;40269;46.742;9.778;2023-02-28T08:21:19;10;7;
36519;PMS5003;40269;46.742;9.778;2023-02-28T08:23:46;9;6;
36519;PMS5003;40269;46.742;9.778;2023-02-28T08:26:14;6;6;
36519;PMS5003;40269;46.742;9.778;2023-02-28T08:28:41;13;9;
36519;PMS5003;40269;46.742;9.778;2023-02-28T08:31:09;6;6;
36519;PMS5003;40269;46.742;9.778;2023-02-28T08:33:37;7;6;
36519;PMS5003;40269;46.742;9.778;2023-02-28T08:36:04;5;5;
36519;PMS5003;40269;46.742;9.778;2023-02-28T08:38:32;7;7;
36519;PMS5003;40269;46.742;9.778;2023-02-28T08:41:00;6;5;
36519;PMS5003;40269;46.742;9.778;2023-02-28T08:43:28;6;5;
36519;PMS5003;40269;46.742;9.778;2023-02-28T08:45:56;9;6;
36519;PMS5003;40269;46.742;9.778;2023-02-28T08:48:23;3;2;
36519;PMS5003;40269;46.742;9.778;2023-02-28T08:50:58;5;5;
36519;PMS5003;40269;46.742;9.778;2023-02-28T08:53:27;5;5;
36519;PMS5003;40269;46.742;9.778;2023-02-28T08:55:55;7;3;
36519;PMS5003;40269;46.742;9.778;2023-02-28T08:58:23;7;6;
36519;PMS5003;40269;46.742;9.778;2023-02-28T09:00:50;7;5;
36519;PMS5003;40269;46.742;9.778;2023-02-28T09:03:18;3;3;
36519;PMS5003;40269;46.742;9.778;2023-02-28T09:06:02;2;2;
36519;PMS5003;40269;46.742;9.778;2023-02-28T09:08:29;3;2;
36519;PMS5003;40269;46.742;9.778;2023-02-28T09:10:57;2;2;
36519;PMS5003;40269;46.742;9.778;2023-02-28T09:13:24;2;2;
36519;PMS5003;40269;46.742;9.778;2023-02-28T09:15:53;4;4;
36519;PMS5003;40269;46.742;9.778;2023-02-28T09:18:23;1;1;
36519;PMS5003;40269;46.742;9.778;2023-02-28T09:20:50;1;1;
36519;PMS5003;40269;46.742;9.778;2023-02-28T09:23:18;2;2;
36519;PMS5003;40269;46.742;9.778;2023-02-28T09:25:46;1;1;
36519;PMS5003;40269;46.742;9.778;2023-02-28T09:28:14;2;2;
36519;PMS5003;40269;46.742;9.778;2023-02-28T09:30:42;2;2;
36519;PMS5003;40269;46.742;9.778;2023-02-28T09:33:11;3;3;
36519;PMS5003;40269;46.742;9.778;2023-02-28T09:35:37;2;1;
36519;PMS5003;40269;46.742;9.778;2023-02-28T09:38:04;21;21;
36519;PMS5003;40269;46.742;9.778;2023-02-28T09:40:32;3;3;
36519;PMS5003;40269;46.742;9.778;2023-02-28T09:43:03;2;2;
36519;PMS5003;40269;46.742;9.778;2023-02-28T09:45:32;3;1;
36519;PMS5003;40269;46.742;9.778;2023-02-28T09:48:03;4;3;
36519;PMS5003;40269;46.742;9.778;2023-02-28T09:50:38;3;3;
36519;PMS5003;40269;46.742;9.778;2023-02-28T09:53:11;2;2;
36519;PMS5003;40269;46.742;9.778;2023-02-28T09:55:47;2;2;
36519;PMS5003;40269;46.742;9.778;2023-02-28T09:58:18;2;2;
36519;PMS5003;40269;46.742;9.778;2023-02-28T10:00:56;5;2;
36519;PMS5003;40269;46.742;9.778;2023-02-28T10:03:30;15;14;
36519;PMS5003;40269;46.742;9.778;2023-02-28T10:06:05;3;3;
36519;PMS5003;40269;46.742;9.778;2023-02-28T10:08:39;2;2;
36519;PMS5003;40269;46.742;9.778;2023-02-28T10:11:14;0;0;
36519;PMS5003;40269;46.742;9.778;2023-02-28T10:13:47;2;2;
36519;PMS5003;40269;46.742;9.778;2023-02-28T10:16:20;1;1;
36519;PMS5003;40269;46.742;9.778;2023-02-28T10:18:55;2;1;
36519;PMS5003;40269;46.742;9.778;2023-02-28T10:21:28;2;2;
36519;PMS5003;40269;46.742;9.778;2023-02-28T10:24:03;1;1;
36519;PMS5003;40269;46.742;9.778;2023-02-28T10:26:38;1;1;
36519;PMS5003;40269;46.742;9.778;2023-02-28T10:29:10;3;3;
36519;PMS5003;40269;46.742;9.778;2023-02-28T10:31:37;2;2;
36519;PMS5003;40269;46.742;9.778;2023-02-28T10:34:06;1;1;
36519;PMS5003;40269;46.742;9.778;2023-02-28T10:36:34;2;2;
36519;PMS5003;40269;46.742;9.778;2023-02-28T10:39:01;2;2;
36519;PMS5003;40269;46.742;9.778;2023-02-28T10:42:02;2;2;
36519;PMS5003;40269;46.742;9.778;2023-02-28T10:44:30;3;2;
36519;PMS5003;40269;46.742;9.778;2023-02-28T10:46:57;2;2;
36519;PMS5003;40269;46.742;9.778;2023-02-28T10:49:25;2;2;
36519;PMS5003;40269;46.742;9.778;2023-02-28T10:51:54;0;0;
36519;PMS5003;40269;46.742;9.778;2023-02-28T10:54:28;1;1;
36519;PMS5003;40269;46.742;9.778;2023-02-28T10:57:05;2;2;
36519;PMS5003;40269;46.742;9.778;2023-02-28T10:59:34;1;1;
36519;PMS5003;40269;46.742;9.778;2023-02-28T11:02:02;1;1;
36519;PMS5003;40269;46.742;9.778;2023-02-28T11:04:55;3;2;
36519;PMS5003;40269;46.742;9.778;2023-02-28T11:07:22;2;2;
36519;PMS5003;40269;46.742;9.778;2023-02-28T11:09:52;3;1;
36519;PMS5003;40269;46.742;9.778;2023-02-28T11:12:22;1;1;
36519;PMS5003;40269;46.742;9.778;2023-02-28T11:14:53;2;2;
36519;PMS5003;40269;46.742;9.778;2023-02-28T11:17:24;2;2;
36519;PMS5003;40269;46.742;9.778;2023-02-28T11:20:43;2;2;
36519;PMS5003;40269;46.742;9.778;2023-02-28T11:23:44;1;1;
36519;PMS5003;40269;46.742;9.778;2023-02-28T11:26:11;2;1;
36519;PMS5003;40269;46.742;9.778;2023-02-28T11:29:18;0;0;
36519;PMS5003;40269;46.742;9.778;2023-02-28T11:34:10;0;0;
36519;PMS5003;40269;46.742;9.778;2023-02-28T11:36:50;1;1;
36519;PMS5003;40269;46.742;9.778;2023-02-28T11:39:19;2;2;
36519;PMS5003;40269;46.742;9.778;2023-02-28T11:41:52;0;0;
36519;PMS5003;40269;46.742;9.778;2023-02-28T11:44:35;0;0;
36519;PMS5003;40269;46.742;9.778;2023-02-28T11:47:15;1;1;
36519;PMS5003;40269;46.742;9.778;2023-02-28T11:49:47;1;1;
36519;PMS5003;40269;46.742;9.778;2023-02-28T11:52:28;1;1;
36519;PMS5003;40269;46.742;9.778;2023-02-28T11:55:08;1;1;
36519;PMS5003;40269;46.742;9.778;2023-02-28T11:57:48;2;1;
36519;PMS5003;40269;46.742;9.778;2023-02-28T12:00:31;1;1;
36519;PMS5003;40269;46.742;9.778;2023-02-28T12:03:14;2;2;
36519;PMS5003;40269;46.742;9.778;2023-02-28T12:05:55;3;3;
36519;PMS5003;40269;46.742;9.778;2023-02-28T12:08:38;1;1;
36519;PMS5003;40269;46.742;9.778;2023-02-28T12:11:15;1;1;
36519;PMS5003;40269;46.742;9.778;2023-02-28T12:13:55;0;0;
36519;PMS5003;40269;46.742;9.778;2023-02-28T12:16:37;1;1;
36519;PMS5003;40269;46.742;9.778;2023-02-28T12:19:17;2;2;
36519;PMS5003;40269;46.742;9.778;2023-02-28T12:21:53;1;1;
36519;PMS5003;40269;46.742;9.778;2023-02-28T12:24:36;2;2;
36519;PMS5003;40269;46.742;9.778;2023-02-28T12:27:13;2;1;
36519;PMS5003;40269;46.742;9.778;2023-02-28T12:29:44;1;1;
36519;PMS5003;40269;46.742;9.778;2023-02-28T12:32:18;3;2;
36519;PMS5003;40269;46.742;9.778;2023-02-28T12:34:51;0;0;
36519;PMS5003;40269;46.742;9.778;2023-02-28T12:37:25;1;1;
36519;PMS5003;40269;46.742;9.778;2023-02-28T12:39:59;0;0;
36519;PMS5003;40269;46.742;9.778;2023-02-28T12:42:29;1;1;
36519;PMS5003;40269;46.742;9.778;2023-02-28T12:44:58;1;1;
36519;PMS5003;40269;46.742;9.778;2023-02-28T12:47:28;1;1;
36519;PMS5003;40269;46.742;9.778;2023-02-28T12:49:56;1;1;
36519;PMS5003;40269;46.742;9.778;2023-02-28T12:52:28;0;0;
36519;PMS5003;40269;46.742;9.778;2023-02-28T12:55:03;1;1;
36519;PMS5003;40269;46.742;9.778;2023-02-28T12:57:39;1;1;
36519;PMS5003;40269;46.742;9.778;2023-02-28T13:00:15;0;0;
36519;PMS5003;40269;46.742;9.778;2023-02-28T13:03:23;1;1;
36519;PMS5003;40269;46.742;9.778;2023-02-28T13:06:13;0;0;
36519;PMS5003;40269;46.742;9.778;2023-02-28T13:09:23;2;2;
36519;PMS5003;40269;46.742;9.778;2023-02-28T13:11:51;1;1;
36519;PMS5003;40269;46.742;9.778;2023-02-28T13:14:23;0;0;
36519;PMS5003;40269;46.742;9.778;2023-02-28T13:16:55;1;1;
36519;PMS5003;40269;46.742;9.778;2023-02-28T13:19:25;0;0;
36519;PMS5003;40269;46.742;9.778;2023-02-28T13:21:53;0;0;
36519;PMS5003;40269;46.742;9.778;2023-02-28T13:24:36;2;1;
36519;PMS5003;40269;46.742;9.778;2023-02-28T13:27:12;1;1;
36519;PMS5003;40269;46.742;9.778;2023-02-28T13:29:49;1;1;
36519;PMS5003;40269;46.742;9.778;2023-02-28T13:32:19;0;0;
36519;PMS5003;40269;46.742;9.778;2023-02-28T13:35:37;2;1;
36519;PMS5003;40269;46.742;9.778;2023-02-28T13:38:16;0;0;
36519;PMS5003;40269;46.742;9.778;2023-02-28T13:40:49;1;1;
36519;PMS5003;40269;46.742;9.778;2023-02-28T13:43:17;1;1;
36519;PMS5003;40269;46.742;9.778;2023-02-28T13:46:17;1;1;
36519;PMS5003;40269;46.742;9.778;2023-02-28T13:48:44;1;1;
36519;PMS5003;40269;46.742;9.778;2023-02-28T13:51:44;3;3;
36519;PMS5003;40269;46.742;9.778;2023-02-28T13:54:24;2;1;
36519;PMS5003;40269;46.742;9.778;2023-02-28T13:57:04;1;1;
36519;PMS5003;40269;46.742;9.778;2023-02-28T13:59:43;1;1;
36519;PMS5003;40269;46.742;9.778;2023-02-28T14:02:28;1;1;
36519;PMS5003;40269;46.742;9.778;2023-02-28T14:05:11;1;1;
36519;PMS5003;40269;46.742;9.778;2023-02-28T14:07:43;1;1;
36519;PMS5003;40269;46.742;9.778;2023-02-28T14:10:20;0;0;
36519;PMS5003;40269;46.742;9.778;2023-02-28T14:12:54;0;0;
36519;PMS5003;40269;46.742;9.778;2023-02-28T14:15:28;1;1;
36519;PMS5003;40269;46.742;9.778;2023-02-28T14:18:13;1;1;
36519;PMS5003;40269;46.742;9.778;2023-02-28T14:20:45;1;1;
36519;PMS5003;40269;46.742;9.778;2023-02-28T14:23:16;2;2;
36519;PMS5003;40269;46.742;9.778;2023-02-28T14:25:54;2;2;
36519;PMS5003;40269;46.742;9.778;2023-02-28T14:28:34;2;2;
36519;PMS5003;40269;46.742;9.778;2023-02-28T14:31:13;1;1;
36519;PMS5003;40269;46.742;9.778;2023-02-28T14:34:05;2;2;
36519;PMS5003;40269;46.742;9.778;2023-02-28T14:36:48;2;2;
36519;PMS5003;40269;46.742;9.778;2023-02-28T14:39:19;1;1;
36519;PMS5003;40269;46.742;9.778;2023-02-28T14:41:48;0;0;
36519;PMS5003;40269;46.742;9.778;2023-02-28T14:44:16;2;2;
36519;PMS5003;40269;46.742;9.778;2023-02-28T14:46:46;2;2;
36519;PMS5003;40269;46.742;9.778;2023-02-28T14:49:17;2;2;
36519;PMS5003;40269;46.742;9.778;2023-02-28T14:51:47;1;1;
36519;PMS5003;40269;46.742;9.778;2023-02-28T14:54:15;2;1;
36519;PMS5003;40269;46.742;9.778;2023-02-28T14:56:48;2;2;
36519;PMS5003;40269;46.742;9.778;2023-02-28T14:59:22;2;2;
36519;PMS5003;40269;46.742;9.778;2023-02-28T15:01:51;2;2;
36519;PMS5003;40269;46.742;9.778;2023-02-28T15:04:21;2;2;
36519;PMS5003;40269;46.742;9.778;2023-02-28T15:07:06;2;2;
36519;PMS5003;40269;46.742;9.778;2023-02-28T15:09:33;2;1;
36519;PMS5003;40269;46.742;9.778;2023-02-28T15:12:01;3;3;
36519;PMS5003;40269;46.742;9.778;2023-02-28T15:14:28;3;3;
36519;PMS5003;40269;46.742;9.778;2023-02-28T15:16:56;2;2;
36519;PMS5003;40269;46.742;9.778;2023-02-28T15:19:28;2;2;
36519;PMS5003;40269;46.742;9.778;2023-02-28T15:21:59;2;2;
36519;PMS5003;40269;46.742;9.778;2023-02-28T15:24:31;1;1;
36519;PMS5003;40269;46.742;9.778;2023-02-28T15:27:04;1;1;
36519;PMS5003;40269;46.742;9.778;2023-02-28T15:29:42;3;2;
36519;PMS5003;40269;46.742;9.778;2023-02-28T15:32:21;2;1;
36519;PMS5003;40269;46.742;9.778;2023-02-28T15:34:52;3;2;
36519;PMS5003;40269;46.742;9.778;2023-02-28T15:37:28;3;3;
36519;PMS5003;40269;46.742;9.778;2023-02-28T15:40:05;2;2;
36519;PMS5003;40269;46.742;9.778;2023-02-28T15:42:38;1;1;
36519;PMS5003;40269;46.742;9.778;2023-02-28T15:45:25;2;2;
36519;PMS5003;40269;46.742;9.778;2023-02-28T15:47:54;1;1;
36519;PMS5003;40269;46.742;9.778;2023-02-28T15:50:21;1;1;
36519;PMS5003;40269;46.742;9.778;2023-02-28T15:52:48;2;2;
36519;PMS5003;40269;46.742;9.778;2023-02-28T15:55:17;2;2;
36519;PMS5003;40269;46.742;9.778;2023-02-28T15:57:47;0;0;
36519;PMS5003;40269;46.742;9.778;2023-02-28T16:00:19;2;1;
36519;PMS5003;40269;46.742;9.778;2023-02-28T16:02:48;1;1;
36519;PMS5003;40269;46.742;9.778;2023-02-28T16:05:20;0;0;
36519;PMS5003;40269;46.742;9.778;2023-02-28T16:07:50;3;3;
36519;PMS5003;40269;46.742;9.778;2023-02-28T16:10:16;3;3;
36519;PMS5003;40269;46.742;9.778;2023-02-28T16:12:43;3;3;
36519;PMS5003;40269;46.742;9.778;2023-02-28T16:15:17;4;3;
36519;PMS5003;40269;46.742;9.778;2023-02-28T16:17:46;7;6;
36519;PMS5003;40269;46.742;9.778;2023-02-28T16:20:14;9;9;
36519;PMS5003;40269;46.742;9.778;2023-02-28T16:22:43;1;1;
36519;PMS5003;40269;46.742;9.778;2023-02-28T16:25:11;3;3;
36519;PMS5003;40269;46.742;9.778;2023-02-28T16:27:39;15;15;
36519;PMS5003;40269;46.742;9.778;2023-02-28T16:30:13;2;2;
36519;PMS5003;40269;46.742;9.778;2023-02-28T16:32:45;3;3;
36519;PMS5003;40269;46.742;9.778;2023-02-28T16:35:12;5;4;
36519;PMS5003;40269;46.742;9.778;2023-02-28T16:37:40;12;11;
36519;PMS5003;40269;46.742;9.778;2023-02-28T16:40:07;3;3;
36519;PMS5003;40269;46.742;9.778;2023-02-28T16:42:39;1;1;
36519;PMS5003;40269;46.742;9.778;2023-02-28T16:45:10;1;1;
36519;PMS5003;40269;46.742;9.778;2023-02-28T16:47:43;4;4;
36519;PMS5003;40269;46.742;9.778;2023-02-28T16:50:12;6;3;
36519;PMS5003;40269;46.742;9.778;2023-02-28T16:52:41;2;2;
36519;PMS5003;40269;46.742;9.778;2023-02-28T16:55:08;5;4;
36519;PMS5003;40269;46.742;9.778;2023-02-28T16:57:35;8;5;
36519;PMS5003;40269;46.742;9.778;2023-02-28T17:00:02;8;5;
36519;PMS5003;40269;46.742;9.778;2023-02-28T17:02:31;13;12;
36519;PMS5003;40269;46.742;9.778;2023-02-28T17:04:58;19;15;
36519;PMS5003;40269;46.742;9.778;2023-02-28T17:07:25;15;14;
36519;PMS5003;40269;46.742;9.778;2023-02-28T17:09:52;15;15;
36519;PMS5003;40269;46.742;9.778;2023-02-28T17:12:19;16;12;
36519;PMS5003;40269;46.742;9.778;2023-02-28T17:14:46;18;15;